Terminal Aerodrome Forecast
Issued by NWS Jacksonville, FL

Home | Current Version | Previous Version | Text Only | Print | Product List | Glossary On
Versions: 1 2 3 4 5 6 7 8 9 10 11 12
000
FTUS42 KJAX 272338
TAFGNV
TAF
KGNV 272338Z 2800/2824 24010G15KT P6SM SCT070
     FM280200 22005KT P6SM SCT060 SCT150 SCT250
     FM280900 00000KT P6SM BKN010
     FM281300 17006KT P6SM SCT010 BKN030
     FM281400 18010KT P6SM SCT035 SCT080=

USA.gov is the U.S. government's official web portal to all federal, state and local government web resources and services.